createdAt,value
2018-03-14T00:00:30.040Z,18.3
2018-03-14T00:01:18.926Z,18.2
2018-03-14T00:02:09.105Z,18.2
2018-03-14T00:02:59.831Z,18.2
2018-03-14T00:03:51.840Z,18.2
2018-03-14T00:04:39.693Z,18.3
2018-03-14T00:05:30.436Z,18.3
2018-03-14T00:06:19.348Z,18.3
2018-03-14T00:07:09.941Z,18.3
2018-03-14T00:07:59.663Z,18.3
2018-03-14T00:08:50.438Z,18.3
2018-03-14T00:09:39.765Z,18.3
2018-03-14T00:10:29.969Z,18.3
2018-03-14T00:11:19.621Z,18.3
2018-03-14T00:12:10.243Z,18.3
2018-03-14T00:13:03.418Z,18.3
2018-03-14T00:13:50.545Z,18.3
2018-03-14T00:14:40.453Z,18.3
2018-03-14T00:15:30.728Z,18.3
2018-03-14T00:16:19.935Z,18.3
2018-03-14T00:17:10.307Z,18.3
2018-03-14T00:18:00.426Z,18.3
2018-03-14T00:18:50.041Z,18.3
2018-03-14T00:19:41.512Z,18.3
2018-03-14T00:20:30.979Z,18.3
2018-03-14T00:21:20.963Z,18.3
2018-03-14T00:22:12.326Z,18.3
2018-03-14T00:23:01.658Z,18.3
2018-03-14T00:23:51.430Z,18.3
2018-03-14T00:24:41.276Z,18.3
2018-03-14T00:25:31.129Z,18.3
2018-03-14T00:26:20.813Z,18.3
2018-03-14T00:27:11.975Z,18.3
2018-03-14T00:28:01.827Z,18.3
2018-03-14T00:28:51.487Z,18.3
2018-03-14T00:29:41.448Z,18.3
2018-03-14T00:30:31.749Z,18.3
2018-03-14T00:31:21.330Z,18.3
2018-03-14T00:32:12.649Z,18.3
2018-03-14T00:33:01.587Z,18.3
2018-03-14T00:33:52.449Z,18.3
2018-03-14T00:34:43.562Z,18.3
2018-03-14T00:35:32.310Z,18.3
2018-03-14T00:36:22.772Z,18.3
2018-03-14T00:37:11.480Z,18.3
2018-03-14T00:38:02.250Z,18.3
2018-03-14T00:38:52.260Z,18.3
2018-03-14T00:39:42.278Z,18.3
2018-03-14T00:40:34.416Z,18.3
2018-03-14T00:41:23.322Z,18.3
2018-03-14T00:42:13.386Z,18.3
2018-03-14T00:43:02.855Z,18.3
2018-03-14T00:43:57.026Z,18.3
2018-03-14T00:44:43.841Z,18.3
2018-03-14T00:45:33.286Z,18.3
2018-03-14T00:46:23.581Z,18.3
2018-03-14T00:47:13.943Z,18.3
2018-03-14T00:48:03.998Z,18.3
2018-03-14T00:48:54.059Z,18.3
2018-03-14T00:49:45.391Z,18.3
2018-03-14T00:50:33.861Z,18.3
2018-03-14T00:51:24.866Z,18.3
2018-03-14T00:52:14.847Z,18.3
2018-03-14T00:53:09.161Z,18.3
2018-03-14T00:53:54.996Z,18.3
2018-03-14T00:54:44.834Z,18.3
2018-03-14T00:55:34.795Z,18.3
2018-03-14T00:56:24.569Z,18.3
2018-03-14T00:57:14.955Z,18.3
2018-03-14T00:58:03.893Z,18.3
2018-03-14T00:58:54.274Z,18.3
2018-03-14T00:59:44.921Z,18.3
2018-03-14T01:00:34.267Z,18.3
2018-03-14T01:01:24.924Z,18.3
2018-03-14T01:02:13.858Z,18.3
2018-03-14T01:03:04.854Z,18.3
2018-03-14T01:03:55.410Z,18.3
2018-03-14T01:04:43.456Z,18.4
2018-03-14T01:05:34.451Z,18.3
2018-03-14T01:06:24.823Z,18.4
2018-03-14T01:07:14.265Z,18.3
2018-03-14T01:08:03.895Z,18.4
2018-03-14T01:08:54.452Z,18.4
2018-03-14T01:09:44.018Z,18.4
2018-03-14T01:10:35.462Z,18.4
2018-03-14T01:11:24.032Z,18.4
2018-03-14T01:12:14.148Z,18.3
2018-03-14T01:13:04.250Z,18.4
2018-03-14T01:13:54.710Z,18.4
2018-03-14T01:14:44.594Z,18.4
2018-03-14T01:15:35.272Z,18.3
2018-03-14T01:16:25.603Z,18.4
2018-03-14T01:17:15.911Z,18.4
2018-03-14T01:18:04.282Z,18.4
2018-03-14T01:18:55.197Z,18.4
2018-03-14T01:19:45.320Z,18.4
2018-03-14T01:20:34.712Z,18.4
2018-03-14T01:21:26.186Z,18.4
2018-03-14T01:22:15.234Z,18.4
2018-03-14T01:23:05.013Z,18.4
2018-03-14T01:23:56.052Z,18.4
2018-03-14T01:24:44.592Z,18.4
2018-03-14T01:25:35.614Z,18.4
2018-03-14T01:26:26.349Z,18.4
2018-03-14T01:27:15.714Z,18.4
2018-03-14T01:28:05.523Z,18.4
2018-03-14T01:28:55.683Z,18.4
2018-03-14T01:29:46.583Z,18.4
2018-03-14T01:30:35.734Z,18.4
2018-03-14T01:31:26.858Z,18.4
2018-03-14T01:32:16.984Z,18.4
2018-03-14T01:33:06.441Z,18.4
2018-03-14T01:33:56.260Z,18.4
2018-03-14T01:34:46.104Z,18.4
2018-03-14T01:35:38.279Z,18.4
2018-03-14T01:36:25.866Z,18.4
2018-03-14T01:37:15.183Z,18.4
2018-03-14T01:38:06.297Z,18.4
2018-03-14T01:38:56.526Z,18.4
2018-03-14T01:39:46.627Z,18.4
2018-03-14T01:40:36.748Z,18.4
2018-03-14T01:41:27.203Z,18.4
2018-03-14T01:42:16.720Z,18.4
2018-03-14T01:43:06.494Z,18.4
2018-03-14T01:43:57.497Z,18.4
2018-03-14T01:44:48.032Z,18.4
2018-03-14T01:45:37.002Z,18.4
2018-03-14T01:46:27.452Z,18.4
2018-03-14T01:47:17.440Z,18.4
2018-03-14T01:48:10.580Z,18.4
2018-03-14T01:48:57.178Z,18.4
2018-03-14T01:49:47.944Z,18.4
2018-03-14T01:50:36.942Z,18.4
2018-03-14T01:51:27.602Z,18.4
2018-03-14T01:52:17.601Z,18.4
2018-03-14T01:53:07.260Z,18.4
2018-03-14T01:53:58.887Z,18.4
2018-03-14T01:54:47.663Z,18.4
2018-03-14T01:55:37.660Z,18.4
2018-03-14T01:56:27.979Z,18.4
2018-03-14T01:57:17.347Z,18.4
2018-03-14T01:58:08.504Z,18.4
2018-03-14T01:58:59.017Z,18.4
2018-03-14T01:59:48.187Z,18.4
2018-03-14T02:00:38.691Z,18.4
2018-03-14T02:01:28.055Z,18.4
2018-03-14T02:02:17.720Z,18.4
2018-03-14T02:03:09.339Z,18.4
2018-03-14T02:03:58.106Z,18.4
2018-03-14T02:04:47.882Z,18.4
2018-03-14T02:05:38.224Z,18.4
2018-03-14T02:06:28.714Z,18.4
2018-03-14T02:07:18.654Z,18.4
2018-03-14T02:08:08.497Z,18.4
2018-03-14T02:08:57.877Z,18.4
2018-03-14T02:09:48.791Z,18.4
2018-03-14T02:10:38.890Z,18.4
2018-03-14T02:11:28.766Z,18.4
2018-03-14T02:12:22.407Z,18.4
2018-03-14T02:13:08.994Z,18.4
2018-03-14T02:13:59.141Z,18.4
2018-03-14T02:14:49.511Z,18.4
2018-03-14T02:15:39.173Z,18.4
2018-03-14T02:16:29.335Z,18.4
2018-03-14T02:17:19.387Z,18.4
2018-03-14T02:18:10.406Z,18.4
2018-03-14T02:18:59.736Z,18.4
2018-03-14T02:19:49.979Z,18.4
2018-03-14T02:20:40.140Z,18.4
2018-03-14T02:21:31.388Z,18.4
2018-03-14T02:22:19.439Z,18.4
2018-03-14T02:23:08.752Z,18.4
2018-03-14T02:23:59.964Z,18.4
2018-03-14T02:24:50.126Z,18.4
2018-03-14T02:25:40.623Z,18.4
2018-03-14T02:26:30.275Z,18.4
2018-03-14T02:27:22.765Z,18.4
2018-03-14T02:28:10.998Z,18.4
2018-03-14T02:29:00.468Z,18.4
2018-03-14T02:29:51.111Z,18.4
2018-03-14T02:30:46.089Z,18.4
2018-03-14T02:31:32.037Z,18.4
2018-03-14T02:32:22.110Z,18.4
2018-03-14T02:33:11.872Z,18.4
2018-03-14T02:34:01.655Z,18.4
2018-03-14T02:34:51.625Z,18.4
2018-03-14T02:35:42.280Z,18.4
2018-03-14T02:36:35.192Z,18.4
2018-03-14T02:37:22.432Z,18.4
2018-03-14T02:38:12.246Z,18.4
2018-03-14T02:39:02.557Z,18.4
2018-03-14T02:39:54.026Z,18.4
2018-03-14T02:40:42.715Z,18.4
2018-03-14T02:41:31.934Z,18.4
2018-03-14T02:42:20.872Z,18.4
2018-03-14T02:43:11.480Z,18.4
2018-03-14T02:44:01.099Z,18.4
2018-03-14T02:44:51.507Z,18.4
2018-03-14T02:45:41.777Z,18.4
2018-03-14T02:46:31.071Z,18.4
2018-03-14T02:47:21.801Z,18.4
2018-03-14T02:48:11.506Z,18.4
2018-03-14T02:49:01.154Z,18.4
2018-03-14T02:49:51.472Z,18.4
2018-03-14T02:50:41.761Z,18.4
2018-03-14T02:51:31.322Z,18.4
2018-03-14T02:52:22.843Z,18.4
2018-03-14T02:53:12.886Z,18.4
2018-03-14T02:54:02.385Z,18.4
2018-03-14T02:54:51.936Z,18.4
2018-03-14T02:55:42.478Z,18.4
2018-03-14T02:56:32.331Z,18.5
2018-03-14T02:57:23.448Z,18.4
2018-03-14T02:58:12.342Z,18.4
2018-03-14T02:59:03.295Z,18.4
2018-03-14T02:59:52.573Z,18.5
2018-03-14T03:00:43.465Z,18.5
2018-03-14T03:01:32.026Z,18.4
2018-03-14T03:02:22.871Z,18.4
2018-03-14T03:03:12.573Z,18.4
2018-03-14T03:04:03.183Z,18.5
2018-03-14T03:04:53.155Z,18.4
2018-03-14T03:05:42.938Z,18.4
2018-03-14T03:06:32.893Z,18.5
2018-03-14T03:07:23.204Z,18.5
2018-03-14T03:08:12.709Z,18.4
2018-03-14T03:09:03.625Z,18.5
2018-03-14T03:09:53.288Z,18.5
2018-03-14T03:10:43.288Z,18.4
2018-03-14T03:11:33.346Z,18.5
2018-03-14T03:12:23.596Z,18.4
2018-03-14T03:13:13.253Z,18.4
2018-03-14T03:14:03.764Z,18.5
2018-03-14T03:14:53.855Z,18.4
2018-03-14T03:15:43.759Z,18.4
2018-03-14T03:16:34.085Z,18.4
2018-03-14T03:17:24.237Z,18.4
2018-03-14T03:18:13.644Z,18.4
2018-03-14T03:19:04.252Z,18.4
2018-03-14T03:19:54.809Z,18.4
2018-03-14T03:20:44.934Z,18.5
2018-03-14T03:21:34.631Z,18.4
2018-03-14T03:22:24.010Z,18.5
2018-03-14T03:23:14.820Z,18.4
2018-03-14T03:24:04.612Z,18.5
2018-03-14T03:24:54.306Z,18.4
2018-03-14T03:25:45.196Z,18.4
2018-03-14T03:26:34.309Z,18.5
2018-03-14T03:27:24.688Z,18.4
2018-03-14T03:28:15.478Z,18.5
2018-03-14T03:29:03.842Z,18.4
2018-03-14T03:29:55.464Z,18.4
2018-03-14T03:30:45.442Z,18.4
2018-03-14T03:31:35.285Z,18.5
2018-03-14T03:32:25.309Z,18.4
2018-03-14T03:33:14.707Z,18.4
2018-03-14T03:34:05.535Z,18.4
2018-03-14T03:34:54.529Z,18.4
2018-03-14T03:35:45.397Z,18.4
2018-03-14T03:36:35.741Z,18.4
2018-03-14T03:37:25.274Z,18.4
2018-03-14T03:38:15.328Z,18.4
2018-03-14T03:39:05.123Z,18.4
2018-03-14T03:39:55.480Z,18.4
2018-03-14T03:40:45.433Z,18.4
2018-03-14T03:41:36.628Z,18.4
2018-03-14T03:42:26.133Z,18.4
2018-03-14T03:43:16.218Z,18.4
2018-03-14T03:44:06.250Z,18.4
2018-03-14T03:44:55.856Z,18.4
2018-03-14T03:45:45.775Z,18.5
2018-03-14T03:46:35.375Z,18.4
2018-03-14T03:47:25.538Z,18.4
2018-03-14T03:48:15.558Z,18.4
2018-03-14T03:49:06.021Z,18.4
2018-03-14T03:49:56.501Z,18.4
2018-03-14T03:50:46.639Z,18.4
2018-03-14T03:51:37.228Z,18.4
2018-03-14T03:52:26.370Z,18.4
2018-03-14T03:53:15.866Z,18.4
2018-03-14T03:54:06.388Z,18.4
2018-03-14T03:54:57.067Z,18.4
2018-03-14T03:55:46.441Z,18.4
2018-03-14T03:56:36.971Z,18.4
2018-03-14T03:57:26.640Z,18.4
2018-03-14T03:58:17.062Z,18.4
2018-03-14T03:59:06.857Z,18.4
2018-03-14T03:59:56.830Z,18.4
2018-03-14T04:00:47.977Z,18.4
2018-03-14T04:01:36.242Z,18.4
2018-03-14T04:02:26.832Z,18.4
2018-03-14T04:03:17.440Z,18.4
2018-03-14T04:04:07.788Z,18.4
2018-03-14T04:04:57.387Z,18.4
2018-03-14T04:05:47.625Z,18.4
2018-03-14T04:06:37.904Z,18.5
2018-03-14T04:07:27.765Z,18.5
2018-03-14T04:08:18.117Z,18.5
2018-03-14T04:09:07.764Z,18.5
2018-03-14T04:09:58.409Z,18.5
2018-03-14T04:10:47.884Z,18.5
2018-03-14T04:11:37.639Z,18.5
2018-03-14T04:12:27.945Z,18.4
2018-03-14T04:13:17.382Z,18.5
2018-03-14T04:14:07.927Z,18.5
2018-03-14T04:14:57.844Z,18.5
2018-03-14T04:15:48.478Z,18.6
2018-03-14T04:16:38.422Z,18.6
2018-03-14T04:17:28.078Z,18.6
2018-03-14T04:18:19.552Z,18.6
2018-03-14T04:19:09.661Z,18.6
2018-03-14T04:19:59.416Z,18.6
2018-03-14T04:20:49.152Z,18.6
2018-03-14T04:21:39.496Z,18.6
2018-03-14T04:22:29.323Z,18.6
2018-03-14T04:23:19.878Z,18.6
2018-03-14T04:24:09.964Z,18.6
2018-03-14T04:24:59.794Z,18.6
2018-03-14T04:25:49.906Z,18.6
2018-03-14T04:26:38.992Z,18.6
2018-03-14T04:27:29.919Z,18.6
2018-03-14T04:28:20.228Z,18.6
2018-03-14T04:29:09.770Z,18.6
2018-03-14T04:30:00.088Z,18.6
2018-03-14T04:30:49.580Z,18.6
2018-03-14T04:31:39.875Z,18.6
2018-03-14T04:32:30.271Z,18.6
2018-03-14T04:33:20.099Z,18.6
2018-03-14T04:34:10.398Z,18.6
2018-03-14T04:35:00.433Z,18.6
2018-03-14T04:35:50.233Z,18.6
2018-03-14T04:36:40.849Z,18.6
2018-03-14T04:37:30.927Z,18.6
2018-03-14T04:38:20.491Z,18.6
2018-03-14T04:39:11.050Z,18.6
2018-03-14T04:40:00.272Z,18.6
2018-03-14T04:40:50.918Z,18.6
2018-03-14T04:41:40.696Z,18.6
2018-03-14T04:42:30.987Z,18.6
2018-03-14T04:43:21.335Z,18.6
2018-03-14T04:44:10.810Z,18.6
2018-03-14T04:45:01.161Z,18.6
2018-03-14T04:45:51.246Z,18.6
2018-03-14T04:46:41.278Z,18.6
2018-03-14T04:47:31.645Z,18.6
2018-03-14T04:48:21.387Z,18.6
2018-03-14T04:49:10.920Z,18.6
2018-03-14T04:50:00.763Z,18.6
2018-03-14T04:50:50.351Z,18.6
2018-03-14T04:51:40.744Z,18.6
2018-03-14T04:52:31.528Z,18.6
2018-03-14T04:53:20.344Z,18.6
2018-03-14T04:54:11.084Z,18.6
2018-03-14T04:55:01.332Z,18.6
2018-03-14T04:55:51.217Z,18.6
2018-03-14T04:56:41.092Z,18.6
2018-03-14T04:57:31.145Z,18.6
2018-03-14T04:58:21.659Z,18.6
2018-03-14T04:59:11.376Z,18.6
2018-03-14T05:00:01.420Z,18.6
2018-03-14T05:00:52.090Z,18.6
2018-03-14T05:01:41.057Z,18.6
2018-03-14T05:02:31.873Z,18.6
2018-03-14T05:03:21.064Z,18.6
2018-03-14T05:04:11.814Z,18.6
2018-03-14T05:05:02.105Z,18.6
2018-03-14T05:05:52.397Z,18.6
2018-03-14T05:06:41.725Z,18.5
2018-03-14T05:07:31.765Z,18.6
2018-03-14T05:08:22.109Z,18.6
2018-03-14T05:09:12.077Z,18.6
2018-03-14T05:10:02.424Z,18.6
2018-03-14T05:10:52.799Z,18.6
2018-03-14T05:11:42.398Z,18.5
2018-03-14T05:12:32.120Z,18.5
2018-03-14T05:13:22.546Z,18.5
2018-03-14T05:14:12.634Z,18.5
2018-03-14T05:15:17.401Z,18.6
2018-03-14T05:15:52.651Z,18.5
2018-03-14T05:16:42.724Z,18.6
2018-03-14T05:17:32.469Z,18.5
2018-03-14T05:18:21.826Z,18.6
2018-03-14T05:19:13.168Z,18.6
2018-03-14T05:20:02.080Z,18.6
2018-03-14T05:20:52.540Z,18.5
2018-03-14T05:21:42.757Z,18.6
2018-03-14T05:22:32.319Z,18.6
2018-03-14T05:23:22.817Z,18.6
2018-03-14T05:24:12.664Z,18.6
2018-03-14T05:25:02.845Z,18.6
2018-03-14T05:25:53.099Z,18.6
2018-03-14T05:26:43.165Z,18.6
2018-03-14T05:27:32.530Z,18.5
2018-03-14T05:28:23.274Z,18.6
2018-03-14T05:29:13.319Z,18.5
2018-03-14T05:30:04.447Z,18.6
2018-03-14T05:30:53.988Z,18.6
2018-03-14T05:31:44.001Z,18.6
2018-03-14T05:32:32.868Z,18.6
2018-03-14T05:33:23.700Z,18.6
2018-03-14T05:34:12.896Z,18.6
2018-03-14T05:35:03.133Z,18.6
2018-03-14T05:35:53.683Z,18.6
2018-03-14T05:36:44.096Z,18.6
2018-03-14T05:37:34.199Z,18.6
2018-03-14T05:38:23.984Z,18.6
2018-03-14T05:39:14.059Z,18.6
2018-03-14T05:40:03.971Z,18.6
2018-03-14T05:40:54.368Z,18.6
2018-03-14T05:41:45.368Z,18.6
2018-03-14T05:42:34.833Z,18.6
2018-03-14T05:43:23.628Z,18.6
2018-03-14T05:44:14.403Z,18.6
2018-03-14T05:45:04.740Z,18.6
2018-03-14T05:45:54.982Z,18.6
2018-03-14T05:46:44.666Z,18.6
2018-03-14T05:47:34.304Z,18.6
2018-03-14T05:48:24.574Z,18.6
2018-03-14T05:49:14.948Z,18.6
2018-03-14T05:50:04.242Z,18.6
2018-03-14T05:50:55.056Z,18.6
2018-03-14T05:51:45.692Z,18.6
2018-03-14T05:52:34.288Z,18.6
2018-03-14T05:53:25.407Z,18.6
2018-03-14T05:54:15.902Z,18.6
2018-03-14T05:55:05.452Z,18.6
2018-03-14T05:55:55.304Z,18.6
2018-03-14T05:56:45.075Z,18.6
2018-03-14T05:57:35.608Z,18.6
2018-03-14T05:58:26.180Z,18.6
2018-03-14T05:59:15.831Z,18.6
2018-03-14T06:00:05.609Z,18.5
2018-03-14T06:00:55.282Z,18.6
2018-03-14T06:01:45.509Z,18.6
2018-03-14T06:02:36.793Z,18.6
2018-03-14T06:03:25.654Z,18.6
2018-03-14T06:04:16.340Z,18.6
2018-03-14T06:05:05.900Z,18.6
2018-03-14T06:05:55.532Z,18.6
2018-03-14T06:06:45.601Z,18.6
2018-03-14T06:07:36.399Z,18.6
2018-03-14T06:08:27.137Z,18.6
2018-03-14T06:09:16.183Z,18.6
2018-03-14T06:10:05.859Z,18.6
2018-03-14T06:10:56.458Z,18.6
2018-03-14T06:11:46.444Z,18.6
2018-03-14T06:12:36.611Z,18.6
2018-03-14T06:13:26.069Z,18.6
2018-03-14T06:14:16.706Z,18.6
2018-03-14T06:15:05.618Z,18.6
2018-03-14T06:15:55.951Z,18.6
2018-03-14T06:16:47.161Z,18.6
2018-03-14T06:17:37.570Z,18.6
2018-03-14T06:18:26.498Z,18.6
2018-03-14T06:19:17.249Z,18.6
2018-03-14T06:20:07.232Z,18.6
2018-03-14T06:20:57.183Z,18.6
2018-03-14T06:21:46.958Z,18.6
2018-03-14T06:22:36.415Z,18.6
2018-03-14T06:23:26.961Z,18.6
2018-03-14T06:24:17.308Z,18.6
2018-03-14T06:25:06.708Z,18.6
2018-03-14T06:25:57.544Z,18.6
2018-03-14T06:26:47.823Z,18.6
2018-03-14T06:27:38.528Z,18.6
2018-03-14T06:28:28.325Z,18.6
2018-03-14T06:29:17.193Z,18.6
2018-03-14T06:30:07.436Z,18.6
2018-03-14T06:30:58.268Z,18.6
2018-03-14T06:31:47.479Z,18.6
2018-03-14T06:32:38.331Z,18.6
2018-03-14T06:33:27.606Z,18.6
2018-03-14T06:34:17.545Z,18.6
2018-03-14T06:35:07.921Z,18.6
2018-03-14T06:35:58.165Z,18.6
2018-03-14T06:36:48.175Z,18.6
2018-03-14T06:37:38.270Z,18.6
2018-03-14T06:38:27.603Z,18.6
2018-03-14T06:39:18.701Z,18.6
2018-03-14T06:40:08.065Z,18.6
2018-03-14T06:40:59.489Z,18.6
2018-03-14T06:41:48.372Z,18.6
2018-03-14T06:42:38.120Z,18.6
2018-03-14T06:43:28.115Z,18.6
2018-03-14T06:44:18.302Z,18.6
2018-03-14T06:45:08.735Z,18.6
2018-03-14T06:45:59.329Z,18.6
2018-03-14T06:46:48.357Z,18.6
2018-03-14T06:47:38.804Z,18.6
2018-03-14T06:48:29.524Z,18.6
2018-03-14T06:49:19.020Z,18.6
2018-03-14T06:50:08.974Z,18.6
2018-03-14T06:50:59.102Z,18.6
2018-03-14T06:51:48.904Z,18.6
2018-03-14T06:52:37.505Z,18.6
2018-03-14T06:53:30.082Z,18.6
2018-03-14T06:54:19.676Z,18.6
2018-03-14T06:55:09.599Z,18.6
2018-03-14T06:55:59.861Z,18.6
2018-03-14T06:56:50.037Z,18.6
2018-03-14T06:57:40.110Z,18.6
2018-03-14T06:58:29.461Z,18.6
2018-03-14T06:59:18.948Z,18.6
2018-03-14T07:00:09.694Z,18.6
2018-03-14T07:01:00.343Z,18.6
2018-03-14T07:01:50.114Z,18.6
2018-03-14T07:02:39.281Z,18.6
2018-03-14T07:03:30.583Z,18.6
2018-03-14T07:04:19.699Z,18.6
2018-03-14T07:05:11.272Z,18.6
2018-03-14T07:06:01.568Z,18.6
2018-03-14T07:06:51.016Z,18.6
2018-03-14T07:07:41.364Z,18.6
2018-03-14T07:08:31.677Z,18.6
2018-03-14T07:09:21.191Z,18.6
2018-03-14T07:10:11.504Z,18.6
2018-03-14T07:11:01.603Z,18.6
2018-03-14T07:11:51.379Z,18.6
2018-03-14T07:12:41.689Z,18.6
2018-03-14T07:13:31.800Z,18.6
2018-03-14T07:14:21.558Z,18.6
2018-03-14T07:15:11.878Z,18.6
2018-03-14T07:16:01.669Z,18.6
2018-03-14T07:16:52.276Z,18.6
2018-03-14T07:17:41.813Z,18.6
2018-03-14T07:18:32.145Z,18.6
2018-03-14T07:19:21.658Z,18.6
2018-03-14T07:20:12.513Z,18.6
2018-03-14T07:21:02.125Z,18.6
2018-03-14T07:21:52.652Z,18.6
2018-03-14T07:22:42.700Z,18.6
2018-03-14T07:23:32.233Z,18.6
2018-03-14T07:24:22.257Z,18.6
2018-03-14T07:25:12.330Z,18.6
2018-03-14T07:26:02.961Z,18.6
2018-03-14T07:26:52.969Z,18.6
2018-03-14T07:27:42.299Z,18.6
2018-03-14T07:28:32.728Z,18.6
2018-03-14T07:29:22.892Z,18.6
2018-03-14T07:30:12.455Z,18.6
2018-03-14T07:31:03.274Z,18.6
2018-03-14T07:31:53.095Z,18.6
2018-03-14T07:32:43.417Z,18.6
2018-03-14T07:33:33.194Z,18.6
2018-03-14T07:34:23.542Z,18.6
2018-03-14T07:35:12.854Z,18.6
2018-03-14T07:36:03.360Z,18.6
2018-03-14T07:36:53.716Z,18.6
2018-03-14T07:37:43.196Z,18.6
2018-03-14T07:38:33.844Z,18.6
2018-03-14T07:39:22.652Z,18.6
2018-03-14T07:40:13.154Z,18.6
2018-03-14T07:41:03.199Z,18.6
2018-03-14T07:41:52.752Z,18.6
2018-03-14T07:42:43.164Z,18.6
2018-03-14T07:43:32.572Z,18.6
2018-03-14T07:44:23.411Z,16.6
2018-03-14T07:45:12.954Z,15.6
2018-03-14T07:46:03.164Z,15.5
2018-03-14T07:46:53.039Z,17.6
2018-03-14T07:47:43.371Z,18.8
2018-03-14T07:48:33.014Z,19.1
2018-03-14T07:49:23.619Z,18.6
2018-03-14T07:50:13.062Z,17.9
2018-03-14T07:51:04.013Z,17.4
2018-03-14T07:51:54.081Z,17.4
2018-03-14T07:52:43.286Z,17.9
2018-03-14T07:53:34.066Z,18.6
2018-03-14T07:54:23.464Z,19.1
2018-03-14T07:55:14.306Z,19.5
2018-03-14T07:56:03.187Z,19.6
2018-03-14T07:56:54.034Z,19.4
2018-03-14T07:57:43.406Z,19.2
2018-03-14T07:58:33.473Z,19.1
2018-03-14T07:59:24.555Z,19
2018-03-14T08:00:14.870Z,19
2018-03-14T08:01:03.572Z,19.1
2018-03-14T08:01:53.861Z,19.1
2018-03-14T08:02:44.615Z,19.2
2018-03-14T08:03:34.891Z,19.2
2018-03-14T08:04:24.562Z,19.2
2018-03-14T08:05:14.333Z,19.2
2018-03-14T08:06:05.329Z,19.3
2018-03-14T08:06:54.072Z,19.3
2018-03-14T08:07:44.342Z,19.3
2018-03-14T08:08:34.102Z,19.3
2018-03-14T08:09:24.825Z,19.3
2018-03-14T08:10:14.880Z,19.3
2018-03-14T08:11:04.378Z,19.2
2018-03-14T08:11:55.206Z,19.1
2018-03-14T08:12:45.433Z,19.1
2018-03-14T08:13:37.921Z,19
2018-03-14T08:14:26.095Z,19
2018-03-14T08:15:16.173Z,18.9
2018-03-14T08:16:06.508Z,18.9
2018-03-14T08:16:56.310Z,18.9
2018-03-14T08:17:46.625Z,19
2018-03-14T08:18:35.848Z,19.1
2018-03-14T08:19:26.507Z,19.1
2018-03-14T08:20:16.595Z,19.1
2018-03-14T08:21:06.888Z,19.1
2018-03-14T08:21:56.640Z,19.1
2018-03-14T08:22:46.123Z,19.1
2018-03-14T08:23:36.750Z,19
2018-03-14T08:24:26.535Z,19
2018-03-14T08:25:16.641Z,19
2018-03-14T08:26:07.355Z,19
2018-03-14T08:26:56.987Z,19
2018-03-14T08:27:47.411Z,19
2018-03-14T08:28:37.134Z,19
2018-03-14T08:29:27.244Z,19
2018-03-14T08:30:17.014Z,19.1
2018-03-14T08:31:07.570Z,19.1
2018-03-14T08:31:56.892Z,19.1
2018-03-14T08:32:47.423Z,19.1
2018-03-14T08:33:37.772Z,19.1
2018-03-14T08:34:26.586Z,19.1
2018-03-14T08:35:16.858Z,19.2
2018-03-14T08:36:07.934Z,19.2
2018-03-14T08:36:58.004Z,19.2
2018-03-14T08:37:48.073Z,19.2
2018-03-14T08:38:37.296Z,19.2
2018-03-14T08:39:27.449Z,19.2
2018-03-14T08:40:17.938Z,19.2
2018-03-14T08:41:07.747Z,19.2
2018-03-14T08:41:58.102Z,19.3
2018-03-14T08:42:47.851Z,19.2
2018-03-14T08:43:37.983Z,19.2
2018-03-14T08:44:28.544Z,19.2
2018-03-14T08:45:17.749Z,19.2
2018-03-14T08:46:08.669Z,19.2
2018-03-14T08:46:58.617Z,19.2
2018-03-14T08:47:47.933Z,19.2
2018-03-14T08:48:37.555Z,19.3
2018-03-14T08:49:28.950Z,19.3
2018-03-14T08:50:18.841Z,19.3
2018-03-14T08:51:08.506Z,19.4
2018-03-14T08:51:57.997Z,19.5
2018-03-14T08:52:48.857Z,19.6
2018-03-14T08:53:39.052Z,19.8
2018-03-14T08:54:29.104Z,19.9
2018-03-14T08:55:19.304Z,20.1
2018-03-14T08:56:08.820Z,20.3
2018-03-14T08:56:58.623Z,20.5
2018-03-14T08:57:49.255Z,20.7
2018-03-14T08:58:38.411Z,20.8
2018-03-14T08:59:29.133Z,20.9
2018-03-14T09:00:19.180Z,21.1
2018-03-14T09:01:08.990Z,21.2
2018-03-14T09:01:58.695Z,21.3
2018-03-14T09:02:49.045Z,21.4
2018-03-14T09:03:38.784Z,21.6
2018-03-14T09:04:29.142Z,21.8
2018-03-14T09:05:19.801Z,22
2018-03-14T09:06:09.830Z,22.2
2018-03-14T09:06:59.874Z,22.4
2018-03-14T09:07:49.937Z,22.6
2018-03-14T09:08:39.768Z,22.8
2018-03-14T09:09:30.093Z,23
2018-03-14T09:10:19.577Z,23.1
2018-03-14T09:11:10.213Z,23.3
2018-03-14T09:12:00.251Z,23.3
2018-03-14T09:12:50.012Z,23.4
2018-03-14T09:13:39.519Z,23.6
2018-03-14T09:14:29.852Z,23.7
2018-03-14T09:15:19.742Z,23.8
2018-03-14T09:16:08.630Z,23.9
2018-03-14T09:16:59.492Z,24.1
2018-03-14T09:17:50.232Z,24.1
2018-03-14T09:18:39.972Z,24.2
2018-03-14T09:19:30.150Z,24.1
2018-03-14T09:20:20.117Z,24.1
2018-03-14T09:21:10.916Z,24.2
2018-03-14T09:21:59.819Z,24.4
2018-03-14T09:22:49.602Z,24.6
2018-03-14T09:23:40.337Z,24.8
2018-03-14T09:24:30.698Z,24.9
2018-03-14T09:25:20.109Z,25
2018-03-14T09:26:10.119Z,25
2018-03-14T09:27:01.103Z,24.9
2018-03-14T09:27:50.739Z,24.8
2018-03-14T09:28:41.584Z,24.8
2018-03-14T09:29:31.025Z,24.9
2018-03-14T09:30:20.316Z,25
2018-03-14T09:31:10.303Z,25
2018-03-14T09:32:00.659Z,25
2018-03-14T09:32:49.621Z,25.1
2018-03-14T09:33:40.475Z,25.3
2018-03-14T09:34:31.998Z,25.6
2018-03-14T09:35:20.797Z,25.8
2018-03-14T09:36:10.870Z,25.8
2018-03-14T09:37:01.268Z,25.7
2018-03-14T09:37:52.151Z,25.6
2018-03-14T09:38:40.653Z,25.4
2018-03-14T09:39:30.583Z,25.4
2018-03-14T09:40:20.838Z,25.4
2018-03-14T09:41:12.184Z,25.4
2018-03-14T09:42:01.893Z,25.3
2018-03-14T09:42:52.026Z,25.3
2018-03-14T09:43:42.268Z,25.2
2018-03-14T09:44:31.843Z,25.2
2018-03-14T09:45:21.778Z,25.1
2018-03-14T09:46:12.244Z,25.1
2018-03-14T09:47:01.924Z,25.1
2018-03-14T09:47:52.188Z,25.1
2018-03-14T09:48:42.498Z,25.2
2018-03-14T09:49:32.487Z,25.3
2018-03-14T09:50:21.305Z,25.4
2018-03-14T09:51:11.666Z,25.4
2018-03-14T09:52:02.263Z,25.4
2018-03-14T09:52:52.373Z,25.5
2018-03-14T09:53:42.791Z,25.5
2018-03-14T09:54:31.985Z,25.6
2018-03-14T09:55:21.941Z,25.6
2018-03-14T09:56:13.088Z,25.6
2018-03-14T09:57:03.585Z,25.7
2018-03-14T09:57:52.408Z,25.8
2018-03-14T09:58:43.146Z,26
2018-03-14T09:59:31.962Z,26.4
2018-03-14T10:00:22.890Z,26.9
2018-03-14T10:01:13.629Z,27.4
2018-03-14T10:02:02.905Z,27.6
2018-03-14T10:02:52.504Z,27.7
2018-03-14T10:03:43.236Z,27.6
2018-03-14T10:04:32.693Z,27.8
2018-03-14T10:05:22.965Z,27.9
2018-03-14T10:06:14.236Z,28.1
2018-03-14T10:07:02.864Z,28.2
2018-03-14T10:07:53.338Z,28.3
2018-03-14T10:08:43.111Z,28.3
2018-03-14T10:09:33.854Z,28.5
2018-03-14T10:10:23.396Z,28.8
2018-03-14T10:11:14.069Z,29.2
2018-03-14T10:12:04.039Z,29.4
2018-03-14T10:12:53.711Z,29.5
2018-03-14T10:13:44.723Z,29.6
2018-03-14T10:14:34.210Z,29.8
2018-03-14T10:15:24.116Z,30
2018-03-14T10:16:13.819Z,30.2
2018-03-14T10:17:03.919Z,30.5
2018-03-14T10:17:54.189Z,30.8
2018-03-14T10:18:43.531Z,31
2018-03-14T10:19:34.187Z,31.1
2018-03-14T10:20:23.930Z,31.3
2018-03-14T10:21:14.220Z,31.4
2018-03-14T10:22:04.260Z,31.6
2018-03-14T10:22:54.153Z,31.8
2018-03-14T10:23:44.186Z,32
2018-03-14T10:24:34.926Z,32.1
2018-03-14T10:25:24.386Z,32.2
2018-03-14T10:26:15.156Z,32
2018-03-14T10:27:04.155Z,31.7
2018-03-14T10:27:54.577Z,31.3
2018-03-14T10:28:45.260Z,31
2018-03-14T10:29:35.000Z,30.7
2018-03-14T10:30:24.948Z,30.5
2018-03-14T10:31:15.447Z,30.4
2018-03-14T10:32:05.799Z,30.2
2018-03-14T10:32:55.660Z,30.1
2018-03-14T10:33:44.930Z,30.3
2018-03-14T10:34:34.687Z,30.4
2018-03-14T10:35:25.851Z,30.6
2018-03-14T10:36:14.825Z,30.8
2018-03-14T10:37:06.222Z,31.2
2018-03-14T10:37:55.524Z,31.5
2018-03-14T10:38:46.300Z,31.6
2018-03-14T10:39:35.916Z,31.5
2018-03-14T10:40:24.590Z,31.3
2018-03-14T10:41:16.535Z,31
2018-03-14T10:42:05.606Z,30.8
2018-03-14T10:42:55.963Z,30.8
2018-03-14T10:43:45.177Z,30.8
2018-03-14T10:44:36.686Z,31.1
2018-03-14T10:45:26.466Z,31.5
2018-03-14T10:46:15.621Z,31.9
2018-03-14T10:47:06.097Z,32.2
2018-03-14T10:47:56.180Z,32.4
2018-03-14T10:48:45.818Z,32.4
2018-03-14T10:49:36.296Z,32.2
2018-03-14T10:50:25.944Z,32
2018-03-14T10:51:16.725Z,31.8
2018-03-14T10:52:06.741Z,31.9
2018-03-14T10:52:57.084Z,32.1
2018-03-14T10:53:45.781Z,32.4
2018-03-14T10:54:37.716Z,32.7
2018-03-14T10:55:26.787Z,32.7
2018-03-14T10:56:17.043Z,32.6
2018-03-14T10:57:05.945Z,32.4
2018-03-14T10:57:57.088Z,32.3
2018-03-14T10:58:47.712Z,32.6
2018-03-14T10:59:37.192Z,33
2018-03-14T11:00:27.607Z,33.4
2018-03-14T11:01:17.228Z,33.4
2018-03-14T11:02:07.451Z,33.3
2018-03-14T11:02:57.333Z,33.1
2018-03-14T11:03:47.205Z,33.1
2018-03-14T11:04:37.747Z,33.2
2018-03-14T11:05:27.638Z,33.6
2018-03-14T11:06:17.303Z,34
2018-03-14T11:07:07.337Z,34.1
2018-03-14T11:07:58.453Z,33.9